sensor_id;sensor_type;location;lat;lon;timestamp;P1;durP1;ratioP1;P2;durP2;ratioP2
6499;SDS011;3283;52.330;9.772;2022-12-31T00:00:58;125.20;;;77.30;;
6499;SDS011;3283;52.330;9.772;2022-12-31T00:03:24;91.70;;;54.57;;
6499;SDS011;3283;52.330;9.772;2022-12-31T00:05:49;130.23;;;68.90;;
6499;SDS011;3283;52.330;9.772;2022-12-31T00:08:15;112.70;;;71.63;;
6499;SDS011;3283;52.330;9.772;2022-12-31T00:10:40;157.57;;;95.90;;
6499;SDS011;3283;52.330;9.772;2022-12-31T00:13:10;80.53;;;44.03;;
6499;SDS011;3283;52.330;9.772;2022-12-31T00:15:36;105.73;;;57.60;;
6499;SDS011;3283;52.330;9.772;2022-12-31T00:18:03;134.10;;;105.57;;
6499;SDS011;3283;52.330;9.772;2022-12-31T00:20:28;108.17;;;57.17;;
6499;SDS011;3283;52.330;9.772;2022-12-31T00:22:54;127.30;;;75.93;;
6499;SDS011;3283;52.330;9.772;2022-12-31T00:25:19;115.70;;;63.50;;
6499;SDS011;3283;52.330;9.772;2022-12-31T00:27:45;158.20;;;93.77;;
6499;SDS011;3283;52.330;9.772;2022-12-31T00:30:10;123.47;;;75.80;;
6499;SDS011;3283;52.330;9.772;2022-12-31T00:32:36;123.00;;;76.33;;
6499;SDS011;3283;52.330;9.772;2022-12-31T00:35:01;109.57;;;59.57;;
6499;SDS011;3283;52.330;9.772;2022-12-31T00:37:27;101.43;;;56.93;;
6499;SDS011;3283;52.330;9.772;2022-12-31T00:39:52;69.60;;;32.00;;
6499;SDS011;3283;52.330;9.772;2022-12-31T00:42:18;95.97;;;54.13;;
6499;SDS011;3283;52.330;9.772;2022-12-31T00:44:43;86.57;;;44.73;;
6499;SDS011;3283;52.330;9.772;2022-12-31T00:47:09;81.63;;;38.37;;
6499;SDS011;3283;52.330;9.772;2022-12-31T00:49:34;99.93;;;49.50;;
6499;SDS011;3283;52.330;9.772;2022-12-31T00:52:00;97.83;;;41.73;;
6499;SDS011;3283;52.330;9.772;2022-12-31T00:54:25;115.43;;;51.70;;
6499;SDS011;3283;52.330;9.772;2022-12-31T00:56:50;75.83;;;38.17;;
6499;SDS011;3283;52.330;9.772;2022-12-31T00:59:16;76.47;;;21.57;;
6499;SDS011;3283;52.330;9.772;2022-12-31T01:01:41;82.17;;;26.37;;
6499;SDS011;3283;52.330;9.772;2022-12-31T01:04:08;55.83;;;31.07;;
6499;SDS011;3283;52.330;9.772;2022-12-31T01:06:35;57.47;;;26.07;;
6499;SDS011;3283;52.330;9.772;2022-12-31T01:09:00;72.77;;;39.83;;
6499;SDS011;3283;52.330;9.772;2022-12-31T01:11:26;73.20;;;37.83;;
6499;SDS011;3283;52.330;9.772;2022-12-31T01:13:58;74.20;;;20.80;;
6499;SDS011;3283;52.330;9.772;2022-12-31T01:16:38;85.17;;;40.93;;
6499;SDS011;3283;52.330;9.772;2022-12-31T01:19:09;89.87;;;31.40;;
6499;SDS011;3283;52.330;9.772;2022-12-31T01:21:38;86.17;;;39.37;;
6499;SDS011;3283;52.330;9.772;2022-12-31T01:24:04;99.83;;;32.07;;
6499;SDS011;3283;52.330;9.772;2022-12-31T01:26:30;54.00;;;36.87;;
6499;SDS011;3283;52.330;9.772;2022-12-31T01:28:55;73.33;;;45.73;;
6499;SDS011;3283;52.330;9.772;2022-12-31T01:31:21;71.53;;;36.33;;
6499;SDS011;3283;52.330;9.772;2022-12-31T01:33:48;106.70;;;55.30;;
6499;SDS011;3283;52.330;9.772;2022-12-31T01:36:15;110.67;;;77.70;;
6499;SDS011;3283;52.330;9.772;2022-12-31T01:38:43;100.77;;;74.47;;
6499;SDS011;3283;52.330;9.772;2022-12-31T01:41:10;130.30;;;89.63;;
6499;SDS011;3283;52.330;9.772;2022-12-31T01:49:07;117.00;;;66.57;;
6499;SDS011;3283;52.330;9.772;2022-12-31T01:51:37;115.80;;;63.63;;
6499;SDS011;3283;52.330;9.772;2022-12-31T01:57:15;120.80;;;85.83;;
6499;SDS011;3283;52.330;9.772;2022-12-31T01:59:42;181.30;;;120.37;;
6499;SDS011;3283;52.330;9.772;2022-12-31T02:02:09;184.40;;;121.00;;
6499;SDS011;3283;52.330;9.772;2022-12-31T02:04:36;160.60;;;109.97;;
6499;SDS011;3283;52.330;9.772;2022-12-31T02:07:02;137.33;;;98.57;;
6499;SDS011;3283;52.330;9.772;2022-12-31T02:09:30;143.63;;;100.60;;
6499;SDS011;3283;52.330;9.772;2022-12-31T02:11:57;140.67;;;82.07;;
6499;SDS011;3283;52.330;9.772;2022-12-31T02:14:24;171.03;;;121.30;;
6499;SDS011;3283;52.330;9.772;2022-12-31T02:31:13;177.50;;;120.53;;
6499;SDS011;3283;52.330;9.772;2022-12-31T02:33:53;169.27;;;107.43;;
6499;SDS011;3283;52.330;9.772;2022-12-31T02:36:27;112.50;;;70.57;;
6499;SDS011;3283;52.330;9.772;2022-12-31T02:38:56;129.87;;;80.43;;
6499;SDS011;3283;52.330;9.772;2022-12-31T02:41:23;149.97;;;93.03;;
6499;SDS011;3283;52.330;9.772;2022-12-31T02:44:24;78.83;;;45.80;;
6499;SDS011;3283;52.330;9.772;2022-12-31T02:49:23;62.30;;;27.70;;
6499;SDS011;3283;52.330;9.772;2022-12-31T02:54:43;107.83;;;73.90;;
6499;SDS011;3283;52.330;9.772;2022-12-31T02:57:26;140.53;;;103.60;;
6499;SDS011;3283;52.330;9.772;2022-12-31T03:00:00;160.37;;;97.83;;
6499;SDS011;3283;52.330;9.772;2022-12-31T03:02:47;193.73;;;125.83;;
6499;SDS011;3283;52.330;9.772;2022-12-31T03:05:15;155.27;;;102.20;;
6499;SDS011;3283;52.330;9.772;2022-12-31T03:07:43;144.00;;;96.73;;
6499;SDS011;3283;52.330;9.772;2022-12-31T03:10:09;114.70;;;73.03;;
6499;SDS011;3283;52.330;9.772;2022-12-31T03:12:35;128.00;;;75.63;;
6499;SDS011;3283;52.330;9.772;2022-12-31T03:15:15;120.57;;;66.37;;
6499;SDS011;3283;52.330;9.772;2022-12-31T03:20:33;118.90;;;71.77;;
6499;SDS011;3283;52.330;9.772;2022-12-31T03:25:46;139.70;;;76.27;;
6499;SDS011;3283;52.330;9.772;2022-12-31T03:28:14;171.30;;;114.70;;
6499;SDS011;3283;52.330;9.772;2022-12-31T03:30:42;154.77;;;96.93;;
6499;SDS011;3283;52.330;9.772;2022-12-31T03:33:09;151.77;;;98.80;;
6499;SDS011;3283;52.330;9.772;2022-12-31T03:35:36;139.23;;;82.57;;
6499;SDS011;3283;52.330;9.772;2022-12-31T03:38:03;123.53;;;77.13;;
6499;SDS011;3283;52.330;9.772;2022-12-31T03:40:29;115.17;;;66.80;;
6499;SDS011;3283;52.330;9.772;2022-12-31T03:42:56;97.97;;;49.73;;
6499;SDS011;3283;52.330;9.772;2022-12-31T03:45:21;85.90;;;42.57;;
6499;SDS011;3283;52.330;9.772;2022-12-31T03:47:47;112.83;;;33.70;;
6499;SDS011;3283;52.330;9.772;2022-12-31T03:50:14;103.17;;;49.67;;
6499;SDS011;3283;52.330;9.772;2022-12-31T03:52:41;90.63;;;47.77;;
6499;SDS011;3283;52.330;9.772;2022-12-31T03:55:07;122.17;;;52.90;;
6499;SDS011;3283;52.330;9.772;2022-12-31T03:57:33;97.60;;;42.87;;
6499;SDS011;3283;52.330;9.772;2022-12-31T03:59:59;80.60;;;23.60;;
6499;SDS011;3283;52.330;9.772;2022-12-31T04:02:24;69.73;;;15.37;;
6499;SDS011;3283;52.330;9.772;2022-12-31T04:04:50;98.60;;;19.83;;
6499;SDS011;3283;52.330;9.772;2022-12-31T04:07:15;77.83;;;14.20;;
6499;SDS011;3283;52.330;9.772;2022-12-31T04:09:40;82.50;;;16.33;;
6499;SDS011;3283;52.330;9.772;2022-12-31T04:12:06;65.10;;;12.70;;
6499;SDS011;3283;52.330;9.772;2022-12-31T04:14:31;88.57;;;17.13;;
6499;SDS011;3283;52.330;9.772;2022-12-31T04:16:57;55.57;;;11.03;;
6499;SDS011;3283;52.330;9.772;2022-12-31T04:19:22;57.33;;;11.60;;
6499;SDS011;3283;52.330;9.772;2022-12-31T04:21:48;55.30;;;10.83;;
6499;SDS011;3283;52.330;9.772;2022-12-31T04:24:13;84.43;;;16.10;;
6499;SDS011;3283;52.330;9.772;2022-12-31T04:26:38;71.57;;;13.93;;
6499;SDS011;3283;52.330;9.772;2022-12-31T04:29:04;73.07;;;14.50;;
6499;SDS011;3283;52.330;9.772;2022-12-31T04:31:29;68.90;;;13.80;;
6499;SDS011;3283;52.330;9.772;2022-12-31T04:33:55;92.10;;;17.67;;
6499;SDS011;3283;52.330;9.772;2022-12-31T04:36:20;51.80;;;11.10;;
6499;SDS011;3283;52.330;9.772;2022-12-31T04:38:46;85.93;;;17.37;;
6499;SDS011;3283;52.330;9.772;2022-12-31T04:41:11;77.23;;;15.50;;
6499;SDS011;3283;52.330;9.772;2022-12-31T04:43:43;78.10;;;14.37;;
6499;SDS011;3283;52.330;9.772;2022-12-31T04:46:11;91.30;;;18.13;;
6499;SDS011;3283;52.330;9.772;2022-12-31T04:48:37;93.13;;;17.93;;
6499;SDS011;3283;52.330;9.772;2022-12-31T04:51:02;68.50;;;14.20;;
6499;SDS011;3283;52.330;9.772;2022-12-31T04:53:28;64.83;;;12.70;;
6499;SDS011;3283;52.330;9.772;2022-12-31T04:55:53;80.13;;;15.20;;
6499;SDS011;3283;52.330;9.772;2022-12-31T04:58:18;73.60;;;14.07;;
6499;SDS011;3283;52.330;9.772;2022-12-31T05:00:44;84.63;;;16.60;;
6499;SDS011;3283;52.330;9.772;2022-12-31T05:03:10;96.87;;;18.83;;
6499;SDS011;3283;52.330;9.772;2022-12-31T05:05:40;72.90;;;15.17;;
6499;SDS011;3283;52.330;9.772;2022-12-31T05:08:07;73.60;;;15.70;;
6499;SDS011;3283;52.330;9.772;2022-12-31T05:10:34;62.67;;;13.93;;
6499;SDS011;3283;52.330;9.772;2022-12-31T05:12:59;68.03;;;15.30;;
6499;SDS011;3283;52.330;9.772;2022-12-31T05:15:25;61.60;;;14.30;;
6499;SDS011;3283;52.330;9.772;2022-12-31T05:17:50;73.00;;;16.47;;
6499;SDS011;3283;52.330;9.772;2022-12-31T05:20:15;74.13;;;15.80;;
6499;SDS011;3283;52.330;9.772;2022-12-31T05:22:41;61.13;;;13.57;;
6499;SDS011;3283;52.330;9.772;2022-12-31T05:25:06;74.40;;;17.07;;
6499;SDS011;3283;52.330;9.772;2022-12-31T05:27:32;55.90;;;13.00;;
6499;SDS011;3283;52.330;9.772;2022-12-31T05:29:58;60.73;;;14.07;;
6499;SDS011;3283;52.330;9.772;2022-12-31T05:32:24;81.90;;;17.33;;
6499;SDS011;3283;52.330;9.772;2022-12-31T05:34:49;49.77;;;10.97;;
6499;SDS011;3283;52.330;9.772;2022-12-31T05:37:14;71.07;;;15.57;;
6499;SDS011;3283;52.330;9.772;2022-12-31T05:39:40;72.57;;;16.40;;
6499;SDS011;3283;52.330;9.772;2022-12-31T05:42:05;57.87;;;12.27;;
6499;SDS011;3283;52.330;9.772;2022-12-31T05:44:30;74.70;;;16.53;;
6499;SDS011;3283;52.330;9.772;2022-12-31T05:46:56;54.97;;;11.83;;
6499;SDS011;3283;52.330;9.772;2022-12-31T05:49:21;78.80;;;16.50;;
6499;SDS011;3283;52.330;9.772;2022-12-31T05:51:46;68.53;;;17.37;;
6499;SDS011;3283;52.330;9.772;2022-12-31T05:54:12;57.30;;;14.30;;
6499;SDS011;3283;52.330;9.772;2022-12-31T05:56:37;72.57;;;19.67;;
6499;SDS011;3283;52.330;9.772;2022-12-31T05:59:02;74.97;;;28.73;;
6499;SDS011;3283;52.330;9.772;2022-12-31T06:01:28;86.90;;;39.97;;
6499;SDS011;3283;52.330;9.772;2022-12-31T06:03:53;125.53;;;37.83;;
6499;SDS011;3283;52.330;9.772;2022-12-31T06:06:18;61.20;;;24.83;;
6499;SDS011;3283;52.330;9.772;2022-12-31T06:08:47;94.23;;;23.57;;
6499;SDS011;3283;52.330;9.772;2022-12-31T06:11:13;85.03;;;25.70;;
6499;SDS011;3283;52.330;9.772;2022-12-31T06:13:39;71.87;;;16.17;;
6499;SDS011;3283;52.330;9.772;2022-12-31T06:16:05;250.03;;;144.83;;
6499;SDS011;3283;52.330;9.772;2022-12-31T06:18:31;325.77;;;167.90;;
6499;SDS011;3283;52.330;9.772;2022-12-31T06:20:57;480.03;;;185.30;;
6499;SDS011;3283;52.330;9.772;2022-12-31T06:23:22;523.40;;;196.07;;
6499;SDS011;3283;52.330;9.772;2022-12-31T06:25:48;548.33;;;173.73;;
6499;SDS011;3283;52.330;9.772;2022-12-31T06:28:13;517.07;;;172.73;;
6499;SDS011;3283;52.330;9.772;2022-12-31T06:33:12;489.90;;;184.52;;
6499;SDS011;3283;52.330;9.772;2022-12-31T06:35:38;527.20;;;189.93;;
6499;SDS011;3283;52.330;9.772;2022-12-31T06:38:03;482.63;;;172.30;;
6499;SDS011;3283;52.330;9.772;2022-12-31T06:40:29;512.53;;;184.43;;
6499;SDS011;3283;52.330;9.772;2022-12-31T06:42:54;538.50;;;195.07;;
6499;SDS011;3283;52.330;9.772;2022-12-31T06:45:19;528.07;;;188.23;;
6499;SDS011;3283;52.330;9.772;2022-12-31T06:47:45;482.70;;;191.27;;
6499;SDS011;3283;52.330;9.772;2022-12-31T06:50:10;509.37;;;184.37;;
6499;SDS011;3283;52.330;9.772;2022-12-31T06:52:35;485.20;;;193.33;;
6499;SDS011;3283;52.330;9.772;2022-12-31T06:55:01;493.23;;;177.80;;
6499;SDS011;3283;52.330;9.772;2022-12-31T06:57:28;541.00;;;176.73;;
6499;SDS011;3283;52.330;9.772;2022-12-31T06:59:54;506.53;;;179.83;;
6499;SDS011;3283;52.330;9.772;2022-12-31T07:05:01;541.73;;;176.07;;
6499;SDS011;3283;52.330;9.772;2022-12-31T07:20:46;490.80;;;177.97;;
6499;SDS011;3283;52.330;9.772;2022-12-31T07:23:11;478.57;;;188.10;;
6499;SDS011;3283;52.330;9.772;2022-12-31T07:25:37;486.83;;;192.27;;
6499;SDS011;3283;52.330;9.772;2022-12-31T07:49:13;453.73;;;196.53;;
6499;SDS011;3283;52.330;9.772;2022-12-31T07:51:38;490.63;;;195.67;;
6499;SDS011;3283;52.330;9.772;2022-12-31T07:54:05;536.07;;;192.17;;
6499;SDS011;3283;52.330;9.772;2022-12-31T07:56:31;544.97;;;185.37;;
6499;SDS011;3283;52.330;9.772;2022-12-31T08:01:49;551.77;;;186.13;;
6499;SDS011;3283;52.330;9.772;2022-12-31T08:11:58;555.57;;;210.50;;
6499;SDS011;3283;52.330;9.772;2022-12-31T08:14:25;546.57;;;175.63;;
6499;SDS011;3283;52.330;9.772;2022-12-31T08:16:51;543.10;;;176.27;;
6499;SDS011;3283;52.330;9.772;2022-12-31T08:19:30;540.43;;;194.60;;
6499;SDS011;3283;52.330;9.772;2022-12-31T08:30:15;537.43;;;176.87;;
6499;SDS011;3283;52.330;9.772;2022-12-31T08:41:28;559.53;;;217.43;;
6499;SDS011;3283;52.330;9.772;2022-12-31T08:49:28;543.43;;;185.07;;
6499;SDS011;3283;52.330;9.772;2022-12-31T08:51:58;549.13;;;181.70;;
6499;SDS011;3283;52.330;9.772;2022-12-31T08:54:25;554.57;;;190.37;;
6499;SDS011;3283;52.330;9.772;2022-12-31T08:59:35;557.20;;;190.57;;
6499;SDS011;3283;52.330;9.772;2022-12-31T09:02:18;486.83;;;185.50;;
6499;SDS011;3283;52.330;9.772;2022-12-31T09:10:28;564.30;;;190.00;;
6499;SDS011;3283;52.330;9.772;2022-12-31T09:15:20;554.50;;;185.03;;
6499;SDS011;3283;52.330;9.772;2022-12-31T09:17:54;555.63;;;190.33;;
6499;SDS011;3283;52.330;9.772;2022-12-31T09:20:24;551.27;;;192.10;;
6499;SDS011;3283;52.330;9.772;2022-12-31T09:22:52;443.23;;;177.93;;
6499;SDS011;3283;52.330;9.772;2022-12-31T09:25:19;547.07;;;192.33;;
6499;SDS011;3283;52.330;9.772;2022-12-31T09:27:57;536.27;;;203.47;;
6499;SDS011;3283;52.330;9.772;2022-12-31T09:30:57;524.03;;;194.30;;
6499;SDS011;3283;52.330;9.772;2022-12-31T09:36:07;484.90;;;187.50;;
6499;SDS011;3283;52.330;9.772;2022-12-31T09:38:46;516.33;;;204.77;;
6499;SDS011;3283;52.330;9.772;2022-12-31T10:14:40;99.13;;;30.43;;
6499;SDS011;3283;52.330;9.772;2022-12-31T10:31:00;80.70;;;22.93;;
6499;SDS011;3283;52.330;9.772;2022-12-31T10:36:30;118.63;;;49.53;;
6499;SDS011;3283;52.330;9.772;2022-12-31T10:47:44;82.80;;;20.50;;
6499;SDS011;3283;52.330;9.772;2022-12-31T10:50:42;130.13;;;57.23;;
6499;SDS011;3283;52.330;9.772;2022-12-31T10:55:45;402.50;;;233.87;;
6499;SDS011;3283;52.330;9.772;2022-12-31T11:01:06;580.57;;;256.57;;
6499;SDS011;3283;52.330;9.772;2022-12-31T11:17:32;622.17;;;261.17;;
6499;SDS011;3283;52.330;9.772;2022-12-31T11:20:11;619.73;;;264.77;;
6499;SDS011;3283;52.330;9.772;2022-12-31T11:45:14;115.03;;;76.70;;
6499;SDS011;3283;52.330;9.772;2022-12-31T11:47:56;102.37;;;70.67;;
6499;SDS011;3283;52.330;9.772;2022-12-31T11:58:27;177.80;;;112.67;;
6499;SDS011;3283;52.330;9.772;2022-12-31T12:03:20;93.93;;;58.90;;
6499;SDS011;3283;52.330;9.772;2022-12-31T12:05:47;105.93;;;72.87;;
6499;SDS011;3283;52.330;9.772;2022-12-31T12:08:13;114.07;;;55.70;;
6499;SDS011;3283;52.330;9.772;2022-12-31T12:15:54;99.27;;;37.20;;
6499;SDS011;3283;52.330;9.772;2022-12-31T12:18:27;95.87;;;44.67;;
6499;SDS011;3283;52.330;9.772;2022-12-31T12:21:05;96.90;;;42.67;;
6499;SDS011;3283;52.330;9.772;2022-12-31T12:23:34;93.00;;;39.67;;
6499;SDS011;3283;52.330;9.772;2022-12-31T12:26:00;123.73;;;73.33;;
6499;SDS011;3283;52.330;9.772;2022-12-31T12:28:27;101.13;;;39.80;;
6499;SDS011;3283;52.330;9.772;2022-12-31T12:33:24;137.20;;;80.47;;
6499;SDS011;3283;52.330;9.772;2022-12-31T12:35:50;128.47;;;69.40;;
6499;SDS011;3283;52.330;9.772;2022-12-31T12:38:19;129.53;;;81.03;;
6499;SDS011;3283;52.330;9.772;2022-12-31T12:40:54;111.17;;;68.83;;
6499;SDS011;3283;52.330;9.772;2022-12-31T12:43:27;106.33;;;74.57;;
6499;SDS011;3283;52.330;9.772;2022-12-31T12:45:56;89.57;;;26.80;;
6499;SDS011;3283;52.330;9.772;2022-12-31T12:48:28;103.57;;;24.77;;
6499;SDS011;3283;52.330;9.772;2022-12-31T12:50:58;99.33;;;48.83;;
6499;SDS011;3283;52.330;9.772;2022-12-31T12:56:17;124.83;;;72.57;;
6499;SDS011;3283;52.330;9.772;2022-12-31T13:01:51;632.93;;;295.47;;
6499;SDS011;3283;52.330;9.772;2022-12-31T13:04:43;619.00;;;279.73;;
6499;SDS011;3283;52.330;9.772;2022-12-31T13:10:25;635.30;;;284.73;;
6499;SDS011;3283;52.330;9.772;2022-12-31T13:21:44;622.07;;;290.13;;
6499;SDS011;3283;52.330;9.772;2022-12-31T13:24:57;623.63;;;287.37;;
6499;SDS011;3283;52.330;9.772;2022-12-31T13:27:27;624.70;;;294.90;;
6499;SDS011;3283;52.330;9.772;2022-12-31T13:29:58;621.20;;;286.03;;
6499;SDS011;3283;52.330;9.772;2022-12-31T13:32:35;603.87;;;253.47;;
6499;SDS011;3283;52.330;9.772;2022-12-31T13:35:26;615.07;;;266.47;;
6499;SDS011;3283;52.330;9.772;2022-12-31T13:38:00;610.87;;;259.20;;
6499;SDS011;3283;52.330;9.772;2022-12-31T13:40:30;613.70;;;274.40;;
6499;SDS011;3283;52.330;9.772;2022-12-31T13:43:55;606.53;;;250.20;;
6499;SDS011;3283;52.330;9.772;2022-12-31T13:48:39;622.87;;;285.80;;
6499;SDS011;3283;52.330;9.772;2022-12-31T13:51:17;610.43;;;280.13;;
6499;SDS011;3283;52.330;9.772;2022-12-31T14:01:09;619.10;;;317.20;;
6499;SDS011;3283;52.330;9.772;2022-12-31T14:06:20;624.90;;;293.60;;
6499;SDS011;3283;52.330;9.772;2022-12-31T14:08:51;626.37;;;292.50;;
6499;SDS011;3283;52.330;9.772;2022-12-31T14:11:31;609.63;;;305.87;;
6499;SDS011;3283;52.330;9.772;2022-12-31T14:14:34;617.97;;;288.10;;
6499;SDS011;3283;52.330;9.772;2022-12-31T14:17:18;621.27;;;279.33;;
6499;SDS011;3283;52.330;9.772;2022-12-31T14:20:17;612.83;;;273.17;;
6499;SDS011;3283;52.330;9.772;2022-12-31T14:37:50;600.20;;;306.93;;
6499;SDS011;3283;52.330;9.772;2022-12-31T14:40:29;555.37;;;319.07;;
6499;SDS011;3283;52.330;9.772;2022-12-31T14:51:33;523.20;;;294.37;;
6499;SDS011;3283;52.330;9.772;2022-12-31T14:54:00;511.20;;;300.47;;
6499;SDS011;3283;52.330;9.772;2022-12-31T14:56:42;519.47;;;299.00;;
6499;SDS011;3283;52.330;9.772;2022-12-31T15:27:59;553.03;;;321.13;;
6499;SDS011;3283;52.330;9.772;2022-12-31T15:30:30;542.13;;;301.07;;
6499;SDS011;3283;52.330;9.772;2022-12-31T15:33:00;512.47;;;300.70;;
6499;SDS011;3283;52.330;9.772;2022-12-31T15:35:30;566.13;;;307.23;;
6499;SDS011;3283;52.330;9.772;2022-12-31T15:40:46;562.50;;;298.17;;
6499;SDS011;3283;52.330;9.772;2022-12-31T15:45:49;556.10;;;311.27;;
6499;SDS011;3283;52.330;9.772;2022-12-31T15:48:19;584.70;;;301.17;;
6499;SDS011;3283;52.330;9.772;2022-12-31T15:50:50;552.43;;;287.37;;
6499;SDS011;3283;52.330;9.772;2022-12-31T15:53:38;580.90;;;283.80;;
6499;SDS011;3283;52.330;9.772;2022-12-31T15:56:06;542.20;;;299.00;;
6499;SDS011;3283;52.330;9.772;2022-12-31T15:58:41;614.80;;;286.97;;
6499;SDS011;3283;52.330;9.772;2022-12-31T16:08:18;550.13;;;333.93;;
6499;SDS011;3283;52.330;9.772;2022-12-31T16:10:45;625.40;;;289.23;;
6499;SDS011;3283;52.330;9.772;2022-12-31T16:13:20;630.43;;;306.80;;
6499;SDS011;3283;52.330;9.772;2022-12-31T16:16:16;611.57;;;267.43;;
6499;SDS011;3283;52.330;9.772;2022-12-31T16:18:44;612.00;;;281.00;;
6499;SDS011;3283;52.330;9.772;2022-12-31T16:21:23;583.07;;;273.67;;
6499;SDS011;3283;52.330;9.772;2022-12-31T16:23:52;629.57;;;280.83;;
6499;SDS011;3283;52.330;9.772;2022-12-31T16:26:19;607.83;;;288.60;;
6499;SDS011;3283;52.330;9.772;2022-12-31T16:28:47;618.73;;;279.57;;
6499;SDS011;3283;52.330;9.772;2022-12-31T16:31:14;621.43;;;298.67;;
6499;SDS011;3283;52.330;9.772;2022-12-31T16:33:41;611.20;;;278.33;;
6499;SDS011;3283;52.330;9.772;2022-12-31T16:36:21;616.47;;;293.67;;
6499;SDS011;3283;52.330;9.772;2022-12-31T16:38:47;627.70;;;280.77;;
6499;SDS011;3283;52.330;9.772;2022-12-31T16:41:17;624.33;;;290.77;;
6499;SDS011;3283;52.330;9.772;2022-12-31T16:43:46;618.47;;;272.80;;
6499;SDS011;3283;52.330;9.772;2022-12-31T16:48:38;630.47;;;284.80;;
6499;SDS011;3283;52.330;9.772;2022-12-31T16:51:03;631.13;;;304.03;;
6499;SDS011;3283;52.330;9.772;2022-12-31T16:53:30;628.17;;;286.63;;
6499;SDS011;3283;52.330;9.772;2022-12-31T16:59:42;604.80;;;287.60;;
6499;SDS011;3283;52.330;9.772;2022-12-31T17:02:19;611.53;;;266.73;;
6499;SDS011;3283;52.330;9.772;2022-12-31T17:04:50;623.50;;;302.70;;
6499;SDS011;3283;52.330;9.772;2022-12-31T17:07:35;619.90;;;278.93;;
6499;SDS011;3283;52.330;9.772;2022-12-31T17:12:32;629.30;;;288.43;;
6499;SDS011;3283;52.330;9.772;2022-12-31T17:15:03;620.03;;;276.30;;
6499;SDS011;3283;52.330;9.772;2022-12-31T17:17:30;612.27;;;288.10;;
6499;SDS011;3283;52.330;9.772;2022-12-31T17:20:00;611.27;;;268.73;;
6499;SDS011;3283;52.330;9.772;2022-12-31T17:22:40;626.13;;;288.67;;
6499;SDS011;3283;52.330;9.772;2022-12-31T17:27:50;625.40;;;305.83;;
6499;SDS011;3283;52.330;9.772;2022-12-31T17:33:00;625.00;;;292.53;;
6499;SDS011;3283;52.330;9.772;2022-12-31T17:35:28;625.30;;;299.70;;
6499;SDS011;3283;52.330;9.772;2022-12-31T17:40:39;598.87;;;264.40;;
6499;SDS011;3283;52.330;9.772;2022-12-31T17:49:26;611.77;;;302.40;;
6499;SDS011;3283;52.330;9.772;2022-12-31T17:51:54;638.30;;;309.50;;
6499;SDS011;3283;52.330;9.772;2022-12-31T17:59:47;89.93;;;15.53;;
6499;SDS011;3283;52.330;9.772;2022-12-31T18:02:12;76.00;;;12.77;;
6499;SDS011;3283;52.330;9.772;2022-12-31T18:04:38;73.50;;;12.40;;
6499;SDS011;3283;52.330;9.772;2022-12-31T18:07:03;81.53;;;13.60;;
6499;SDS011;3283;52.330;9.772;2022-12-31T18:09:29;91.53;;;15.00;;
6499;SDS011;3283;52.330;9.772;2022-12-31T18:11:54;75.37;;;12.30;;
6499;SDS011;3283;52.330;9.772;2022-12-31T18:14:19;84.47;;;13.83;;
6499;SDS011;3283;52.330;9.772;2022-12-31T18:16:45;96.43;;;15.30;;
6499;SDS011;3283;52.330;9.772;2022-12-31T18:19:11;87.63;;;13.90;;
6499;SDS011;3283;52.330;9.772;2022-12-31T18:21:38;108.77;;;17.50;;
6499;SDS011;3283;52.330;9.772;2022-12-31T18:24:04;109.50;;;17.30;;
6499;SDS011;3283;52.330;9.772;2022-12-31T18:26:30;80.37;;;16.93;;
6499;SDS011;3283;52.330;9.772;2022-12-31T18:29:00;97.43;;;40.47;;
6499;SDS011;3283;52.330;9.772;2022-12-31T18:34:43;529.23;;;286.33;;
6499;SDS011;3283;52.330;9.772;2022-12-31T18:37:10;558.87;;;243.07;;
6499;SDS011;3283;52.330;9.772;2022-12-31T18:39:37;616.20;;;274.97;;
6499;SDS011;3283;52.330;9.772;2022-12-31T18:42:02;626.53;;;274.70;;
6499;SDS011;3283;52.330;9.772;2022-12-31T18:44:27;620.17;;;253.93;;
6499;SDS011;3283;52.330;9.772;2022-12-31T18:46:53;642.10;;;275.87;;
6499;SDS011;3283;52.330;9.772;2022-12-31T18:49:18;602.77;;;248.77;;
6499;SDS011;3283;52.330;9.772;2022-12-31T18:53:39;617.47;;;255.13;;
6499;SDS011;3283;52.330;9.772;2022-12-31T18:56:05;340.83;;;271.40;;
6499;SDS011;3283;52.330;9.772;2022-12-31T18:58:34;413.67;;;257.83;;
6499;SDS011;3283;52.330;9.772;2022-12-31T19:01:00;366.77;;;288.17;;
6499;SDS011;3283;52.330;9.772;2022-12-31T19:03:25;390.23;;;300.87;;
6499;SDS011;3283;52.330;9.772;2022-12-31T19:05:52;564.70;;;265.60;;
6499;SDS011;3283;52.330;9.772;2022-12-31T19:08:18;609.87;;;244.53;;
6499;SDS011;3283;52.330;9.772;2022-12-31T19:10:45;601.60;;;249.27;;
6499;SDS011;3283;52.330;9.772;2022-12-31T19:13:12;636.27;;;264.30;;
6499;SDS011;3283;52.330;9.772;2022-12-31T19:15:52;606.53;;;243.60;;
6499;SDS011;3283;52.330;9.772;2022-12-31T19:18:19;616.03;;;263.90;;
6499;SDS011;3283;52.330;9.772;2022-12-31T19:20:44;602.57;;;240.87;;
6499;SDS011;3283;52.330;9.772;2022-12-31T19:23:13;610.63;;;242.87;;
6499;SDS011;3283;52.330;9.772;2022-12-31T19:25:41;614.30;;;262.07;;
6499;SDS011;3283;52.330;9.772;2022-12-31T19:52:31;110.70;;;16.50;;
6499;SDS011;3283;52.330;9.772;2022-12-31T19:54:56;93.83;;;13.00;;
6499;SDS011;3283;52.330;9.772;2022-12-31T19:57:21;81.33;;;11.77;;
6499;SDS011;3283;52.330;9.772;2022-12-31T19:59:47;136.50;;;17.70;;
6499;SDS011;3283;52.330;9.772;2022-12-31T20:02:12;94.80;;;12.33;;
6499;SDS011;3283;52.330;9.772;2022-12-31T20:04:37;85.83;;;11.47;;
6499;SDS011;3283;52.330;9.772;2022-12-31T20:07:03;98.00;;;13.20;;
6499;SDS011;3283;52.330;9.772;2022-12-31T20:09:28;126.97;;;17.50;;
6499;SDS011;3283;52.330;9.772;2022-12-31T20:11:53;138.80;;;17.20;;
6499;SDS011;3283;52.330;9.772;2022-12-31T20:16:41;77.67;;;13.30;;
6499;SDS011;3283;52.330;9.772;2022-12-31T20:19:08;62.20;;;10.07;;
6499;SDS011;3283;52.330;9.772;2022-12-31T20:21:33;86.77;;;11.40;;
6499;SDS011;3283;52.330;9.772;2022-12-31T20:23:59;107.17;;;13.73;;
6499;SDS011;3283;52.330;9.772;2022-12-31T20:26:24;84.87;;;11.27;;
6499;SDS011;3283;52.330;9.772;2022-12-31T20:28:50;83.47;;;11.10;;
6499;SDS011;3283;52.330;9.772;2022-12-31T20:31:17;80.63;;;10.67;;
6499;SDS011;3283;52.330;9.772;2022-12-31T20:33:45;95.60;;;12.60;;
6499;SDS011;3283;52.330;9.772;2022-12-31T20:36:12;87.37;;;11.80;;
6499;SDS011;3283;52.330;9.772;2022-12-31T20:38:38;71.10;;;9.53;;
6499;SDS011;3283;52.330;9.772;2022-12-31T20:41:04;55.00;;;7.93;;
6499;SDS011;3283;52.330;9.772;2022-12-31T20:43:32;68.80;;;9.43;;
6499;SDS011;3283;52.330;9.772;2022-12-31T20:45:58;58.27;;;8.97;;
6499;SDS011;3283;52.330;9.772;2022-12-31T20:48:29;62.67;;;8.67;;
6499;SDS011;3283;52.330;9.772;2022-12-31T20:50:55;74.07;;;10.20;;
6499;SDS011;3283;52.330;9.772;2022-12-31T20:53:21;68.33;;;8.83;;
6499;SDS011;3283;52.330;9.772;2022-12-31T20:55:47;72.90;;;10.17;;
6499;SDS011;3283;52.330;9.772;2022-12-31T20:58:12;63.03;;;8.67;;
6499;SDS011;3283;52.330;9.772;2022-12-31T21:00:37;67.03;;;8.83;;
6499;SDS011;3283;52.330;9.772;2022-12-31T21:03:03;69.73;;;9.27;;
6499;SDS011;3283;52.330;9.772;2022-12-31T21:05:28;181.07;;;28.57;;
6499;SDS011;3283;52.330;9.772;2022-12-31T21:07:53;88.63;;;11.80;;
6499;SDS011;3283;52.330;9.772;2022-12-31T21:10:19;56.37;;;8.13;;
6499;SDS011;3283;52.330;9.772;2022-12-31T21:12:44;52.40;;;7.77;;
6499;SDS011;3283;52.330;9.772;2022-12-31T21:15:17;58.33;;;8.50;;
6499;SDS011;3283;52.330;9.772;2022-12-31T21:17:43;63.30;;;8.47;;